Impacts METAR Board
IDs:

KGRK - Killeen-Ft Hood Rgnl, TX, US

Updated at: 0400 UTC 18 Jan 2022
Potential Impact None Slight Moderate High
Time 17/16Z 17/17Z 17/18Z 17/19Z 17/20Z 17/21Z 17/22Z 17/23Z 18/00Z 18/01Z 18/02Z 18/03Z 18/04Z
Temp48 55 59 62 64 65 65 64 55 52 47 44 52
Dewpt25 22 24 23 23 22 24 22 24 25 24 26 23
Altim30.17 30.17 30.15 30.10 30.07 30.05 30.04 30.02 30.01 30.01 30.02 30.02 30.01
VIS6 7 6 7 9 10 9 9 10 10 10 10 9
CIG-- -- -- -- -- -- -- -- -- -- -- -- --
CoverCLRCLRCLRCLRCLRCLRCLRCLRCLRCLRCLRCLRCLR
FltCatVFRVFRVFRVFRVFRVFRVFRVFRVFRVFRVFRVFRVFR
WXHZ--HZ--------------------
WDir01300150130120120120140150160160170
WSpd0 6 0 9 9 8 6 10 5 4 5 5 8
WGst-- -- -- -- -- -- -- -- -- -- -- -- --
Raw hourly METARs
KGRK 171556Z AUTO 00000KT 6SM HZ CLR 09/M04 A3017 RMK AO2 SLP218 T00901039
KGRK 171656Z AUTO 13006KT 7SM CLR 13/M05 A3017 RMK AO2 SLP219 T01281053
KGRK 171756Z AUTO 00000KT 6SM HZ CLR 15/M04 A3015 RMK AO2 SLP210 T01501044 10150 21003 58004
KGRK 171856Z AUTO 15009KT 7SM CLR 17/M05 A3010 RMK AO2 SLP193 T01691050
KGRK 171956Z AUTO 13009KT 9SM CLR 18/M05 A3007 RMK AO2 SLP182 T01761050
KGRK 172056Z AUTO 12008KT 10SM CLR 19/M06 A3005 RMK AO2 SLP176 T01851056 57031
KGRK 172156Z AUTO 12006KT 9SM CLR 18/M04 A3004 RMK AO2 SLP173 T01841043
KGRK 172256Z AUTO 12010KT 9SM CLR 18/M06 A3002 RMK AO2 SLP167 T01771056
KGRK 172356Z AUTO 14005KT 10SM CLR 13/M04 A3001 RMK AO2 SLP166 T01291043 10186 20128 57013
KGRK 180056Z AUTO 15004KT 10SM CLR 11/M04 A3001 RMK AO2 SLP165 T01131040
KGRK 180156Z AUTO 16005KT 10SM CLR 09/M04 A3002 RMK AO2 SLP170 T00861042
KGRK 180256Z AUTO 16005KT 10SM CLR 07/M04 A3002 RMK AO2 SLP169 T00691036 50003
KGRK 180356Z AUTO 17008KT 9SM CLR 11/M05 A3001 RMK AO2 SLP163 T01131048